Terminal Aerodrome Forecast
Issued by NWS

Home | Current Version | Previous Version | Text Only | Print | Product List | Glossary On
Versions: 1 2 3 4 5 6 7 8 9 10 11 12 13 14
000
FTUS45 KVEF 291120
TAFDAG
TAF
KDAG 291120Z 2912/3012 25010KT P6SM SKC
     FM291600 31008KT P6SM FEW150
     FM291900 08010KT P6SM SCT130
     FM292200 08012G20KT P6SM VCTS SCT120CB
     FM300200 15007KT P6SM VCSH SCT100 BKN150
     FM300400 24005KT P6SM FEW100 SCT150=

USA.gov is the U.S. government's official web portal to all federal, state and local government web resources and services.